• Join FlightAware (Why Join?)
  • Login
  • US Flag 
05:30AM EST


 

Airport Tracker/Info


-or-


 

Live Flight TrackerFlight Track Log ✈ SKW7363 ✈ 21-Jan-2014 ✈ KSLC - KTWF

Flight Track Log - Related Links

Times and Time Zones

All times are in EST time to prevent confusion due to time zone crossing. See the SKW7363 flight status page for this flight to view local times or setup timezone preferences in your user account.

Time Position Orientation Groundspeed Altitude Reporting Facility
EST Latitude Longitude Course Direction KTS MPH feet Rate Location/Type
07:03PM 40.8022 -112.0006 312° West 154 177 5,100  Level Salt Lake Center
07:03PM 40.8103 -112.0092 321° Northwest 161 185 5,500 1,680 Climbing Salt Lake Center
07:04PM 40.8544 -112.0594 319° Northwest 221 254 7,200 1,680 Climbing Salt Lake Center
07:05PM 40.8872 -112.0933 322° Northwest 214 246 8,500 1,860 Climbing Salt Lake Center
07:05PM 40.9028 -112.1083 324° Northwest 219 252 9,100 1,440 Climbing Salt Lake Center
07:06PM 40.9372 -112.1389 326° Northwest 216 249 10,000 480 Climbing Salt Lake Center
07:07PM 40.9903 -112.1878 325° Northwest 230 265 10,000  Level Salt Lake Center
07:08PM 41.0615 -112.3684 312° West  Level Estimated
07:08PM 41.0369 -112.2522 314° West 241 277 10,000  Level Salt Lake Center
07:09PM 41.0764 -112.3178 309° West 227 261 11,400 1,500 Climbing Salt Lake Center
07:10PM 41.1147 -112.3758 311° West 211 243 13,100 1,680 Climbing Salt Lake Center
07:11PM 41.1553 -112.4350 312° West 215 247 14,900 1,680 Climbing Salt Lake Center
07:12PM 41.1947 -112.4964 311° West 216 249 16,600 1,320 Climbing Salt Lake Center
07:13PM 41.2347 -112.5542 313° West 212 244 17,700 1,320 Climbing Salt Lake Center
07:14PM 41.2803 -112.6233 311° West 209 241 19,400 1,500 Climbing Salt Lake Center
07:15PM 41.3169 -112.6803 311° West 205 236 20,800 1,200 Climbing Salt Lake Center
07:16PM 41.3539 -112.7367 311° West 205 236 21,900 540 Climbing Salt Lake Center
07:17PM 41.3978 -112.8028 312° West 239 275 22,000  Climbing Salt Lake Center
07:18PM 41.4453 -112.8736 312° West 253 291 21,900 -60 Descending Salt Lake Center
07:19PM 41.4908 -112.9431 311° West 250 288 21,900  Level Salt Lake Center
07:20PM 41.5353 -113.0131 310° West 247 284 21,900  Level Salt Lake Center
07:21PM 41.5800 -113.0842 310° West 249 287 21,900  Level Salt Lake Center
07:22PM 41.6269 -113.1531 312° West 252 290 22,000  Climbing Salt Lake Center
07:23PM 41.6817 -113.2372 311° West 250 288 22,000 -60 Level Salt Lake Center
07:24PM 41.7281 -113.3064 312° West 250 288 21,900  Descending Salt Lake Center
07:25PM 41.7733 -113.3767 311° West 250 288 22,000  Climbing Salt Lake Center
07:26PM 41.8172 -113.4475 310° West 254 292 22,000  Level Salt Lake Center
07:27PM 41.8631 -113.5169 312° West 250 288 22,000  Level Salt Lake Center
07:28PM 41.9083 -113.5875 311° West 250 288 22,000 -600 Level Salt Lake Center
07:29PM 41.9547 -113.6603 311° West 254 292 20,900 -1,260 Descending Salt Lake Center
07:30PM 42.0053 -113.7389 311° West 269 310 19,500 -1,500 Descending Salt Lake Center
07:31PM 42.0539 -113.8158 310° West 272 313 17,900 -1,440 Descending Salt Lake Center
07:32PM 42.1094 -113.9025 311° West 258 297 16,600 -1,320 Descending Salt Lake Center
07:33PM 42.1550 -113.9731 311° West 253 291 15,300 -1,260 Descending Salt Lake Center
07:34PM 42.2033 -114.0497 310° West 261 300 14,100 -1,380 Descending Salt Lake Center
07:35PM 42.2525 -114.1267 311° West 269 310 12,500 -2,400 Descending Salt Lake Center
07:36PM 42.3108 -114.2186 311° West 296 341 9,300 -3,180 Descending Salt Lake Center